NKS386 KATL-KFLL
Flight info
| Callsign | NKS386 |
|---|---|
| Flight time | N/A |
| Altitude | 39000 |
| Route | SMLTZ3 WALET ZPLEN TEEKY4 |
| Aircraft | A20N/M-SDE2E3FGHIRWXY/LB1 |
Departure
| Time | 2026-04-30 18:32 |
|---|---|
| Airport | Hartsfield Jackson Atlanta International Airport (KATL) |
Arrival
| Time | N/A |
|---|---|
| Airport | Fort Lauderdale Hollywood International Airport (KFLL) |
| Time | Latitude | Longitude | Altitude | Speed | Heading |
|---|---|---|---|---|---|
| 2026-04-30 18:08 | 33.63791 | -84.42986 | 1006 ft | 0 kts | 90° |
| 2026-04-30 18:19 | 33.63791 | -84.42992 | 1006 ft | 2 kts | 85° |
| 2026-04-30 18:19 | 33.63791 | -84.43011 | 1007 ft | 2 kts | 92° |
| 2026-04-30 18:19 | 33.63791 | -84.43028 | 1007 ft | 2 kts | 89° |
| 2026-04-30 18:20 | 33.63795 | -84.43046 | 1008 ft | 2 kts | 125° |
| 2026-04-30 18:20 | 33.63805 | -84.43059 | 1008 ft | 2 kts | 153° |
| 2026-04-30 18:20 | 33.63817 | -84.43063 | 1008 ft | 1 kts | 175° |
| 2026-04-30 18:20 | 33.63821 | -84.43063 | 1008 ft | 1 kts | 185° |
| 2026-04-30 18:21 | 33.63826 | -84.43063 | 1008 ft | 0 kts | 181° |
| 2026-04-30 18:23 | 33.63824 | -84.43063 | 1008 ft | 0 kts | 181° |
| 2026-04-30 18:24 | 33.63794 | -84.43064 | 1008 ft | 3 kts | 182° |
| 2026-04-30 18:24 | 33.63763 | -84.43065 | 1007 ft | 5 kts | 180° |
| 2026-04-30 18:24 | 33.63720 | -84.43061 | 1007 ft | 6 kts | 170° |
| 2026-04-30 18:25 | 33.63674 | -84.43034 | 1007 ft | 8 kts | 127° |
| 2026-04-30 18:25 | 33.63663 | -84.42858 | 1004 ft | 13 kts | 90° |
| 2026-04-30 18:25 | 33.63659 | -84.42741 | 1002 ft | 15 kts | 95° |
| 2026-04-30 18:26 | 33.63655 | -84.42448 | 994 ft | 20 kts | 91° |
| 2026-04-30 18:26 | 33.63654 | -84.42269 | 989 ft | 22 kts | 90° |
| 2026-04-30 18:26 | 33.63654 | -84.42075 | 983 ft | 19 kts | 90° |
| 2026-04-30 18:27 | 33.63654 | -84.41695 | 971 ft | 24 kts | 90° |
| 2026-04-30 18:27 | 33.63654 | -84.41482 | 966 ft | 26 kts | 90° |
| 2026-04-30 18:28 | 33.63655 | -84.41119 | 959 ft | 19 kts | 90° |
| 2026-04-30 18:28 | 33.63656 | -84.40989 | 957 ft | 12 kts | 90° |
| 2026-04-30 18:28 | 33.63588 | -84.40910 | 956 ft | 3 kts | 179° |
| 2026-04-30 18:29 | 33.63586 | -84.40910 | 956 ft | 0 kts | 179° |
| 2026-04-30 18:30 | 33.63517 | -84.40910 | 956 ft | 11 kts | 181° |
| 2026-04-30 18:30 | 33.63470 | -84.41014 | 958 ft | 11 kts | 269° |
| 2026-04-30 18:31 | 33.63468 | -84.41328 | 963 ft | 73 kts | 270° |
| 2026-04-30 18:31 | 33.63467 | -84.43523 | 1151 ft | 172 kts | 272° |
| 2026-04-30 18:32 | 33.63271 | -84.46439 | 2548 ft | 180 kts | 255° |
| 2026-04-30 18:32 | 33.62714 | -84.47809 | 3097 ft | 192 kts | 250° |
| 2026-04-30 18:32 | 33.62671 | -84.51028 | 4048 ft | 209 kts | 290° |
| 2026-04-30 18:33 | 33.63067 | -84.52764 | 4487 ft | 229 kts | 286° |
| 2026-04-30 18:33 | 33.63462 | -84.56860 | 5565 ft | 264 kts | 275° |
| 2026-04-30 18:33 | 33.63493 | -84.59068 | 6459 ft | 266 kts | 274° |
| 2026-04-30 18:34 | 33.63493 | -84.61267 | 7343 ft | 268 kts | 273° |
| 2026-04-30 18:34 | 33.62967 | -84.65636 | 9050 ft | 279 kts | 239° |
| 2026-04-30 18:34 | 33.61565 | -84.67258 | 9942 ft | 287 kts | 216° |
| 2026-04-30 18:35 | 33.59778 | -84.68322 | 10816 ft | 290 kts | 211° |
| 2026-04-30 18:35 | 33.57934 | -84.69322 | 11552 ft | 297 kts | 207° |
| 2026-04-30 18:35 | 33.55917 | -84.69965 | 12282 ft | 309 kts | 189° |
| 2026-04-30 18:36 | 33.51554 | -84.68965 | 13820 ft | 324 kts | 169° |
| 2026-04-30 18:36 | 33.49393 | -84.68259 | 14569 ft | 325 kts | 172° |
| 2026-04-30 18:36 | 33.44902 | -84.67251 | 15894 ft | 331 kts | 179° |
| 2026-04-30 18:37 | 33.42638 | -84.66618 | 16489 ft | 347 kts | 165° |
| 2026-04-30 18:37 | 33.40488 | -84.65140 | 17041 ft | 367 kts | 146° |
| 2026-04-30 18:37 | 33.38549 | -84.63017 | 17340 ft | 387 kts | 140° |
| 2026-04-30 18:37 | 33.36607 | -84.60662 | 17765 ft | 398 kts | 139° |
| 2026-04-30 18:38 | 33.34662 | -84.58273 | 18378 ft | 402 kts | 139° |
| 2026-04-30 18:38 | 33.32709 | -84.55903 | 18980 ft | 406 kts | 140° |
| 2026-04-30 18:38 | 33.30694 | -84.53487 | 19586 ft | 409 kts | 141° |
| 2026-04-30 18:38 | 33.28682 | -84.51093 | 20222 ft | 412 kts | 141° |
| 2026-04-30 18:39 | 33.26611 | -84.48646 | 20819 ft | 415 kts | 141° |
| 2026-04-30 18:39 | 33.24554 | -84.46222 | 21378 ft | 419 kts | 142° |
| 2026-04-30 18:39 | 33.22464 | -84.43767 | 21971 ft | 422 kts | 142° |
| 2026-04-30 18:39 | 33.20357 | -84.41290 | 22520 ft | 426 kts | 142° |
| 2026-04-30 18:40 | 33.18213 | -84.38774 | 23077 ft | 429 kts | 142° |
| 2026-04-30 18:40 | 33.16086 | -84.36276 | 23597 ft | 433 kts | 142° |
| 2026-04-30 18:40 | 33.13913 | -84.33727 | 24059 ft | 439 kts | 143° |
| 2026-04-30 18:40 | 33.11732 | -84.31174 | 24484 ft | 444 kts | 143° |
| 2026-04-30 18:41 | 33.09518 | -84.28580 | 24923 ft | 449 kts | 143° |
| 2026-04-30 18:41 | 33.07265 | -84.25939 | 25382 ft | 453 kts | 143° |
| 2026-04-30 18:41 | 33.05035 | -84.23331 | 25915 ft | 454 kts | 143° |
| 2026-04-30 18:41 | 33.02755 | -84.20664 | 26369 ft | 457 kts | 143° |
| 2026-04-30 18:42 | 33.00380 | -84.18228 | 26729 ft | 453 kts | 153° |
| 2026-04-30 18:42 | 32.94795 | -84.14993 | 27503 ft | 439 kts | 172° |
| 2026-04-30 18:42 | 32.91906 | -84.13840 | 27896 ft | 441 kts | 173° |
| 2026-04-30 18:45 | 32.61475 | -84.01503 | 31059 ft | 475 kts | 171° |
| 2026-04-30 18:45 | 32.58329 | -84.00214 | 31331 ft | 478 kts | 171° |
| 2026-04-30 18:45 | 32.55156 | -83.98914 | 31583 ft | 481 kts | 171° |
| 2026-04-30 18:46 | 32.52014 | -83.97628 | 31875 ft | 482 kts | 171° |
| 2026-04-30 18:46 | 32.48809 | -83.96322 | 32158 ft | 484 kts | 171° |
| 2026-04-30 18:46 | 32.45632 | -83.95020 | 32415 ft | 486 kts | 171° |
| 2026-04-30 18:46 | 32.42389 | -83.93696 | 32669 ft | 488 kts | 171° |
| 2026-04-30 18:47 | 32.39195 | -83.92396 | 32913 ft | 490 kts | 171° |
| 2026-04-30 18:47 | 32.35987 | -83.91115 | 33258 ft | 487 kts | 172° |
| 2026-04-30 18:47 | 32.32734 | -83.89929 | 33657 ft | 485 kts | 173° |
| 2026-04-30 18:47 | 32.29490 | -83.88767 | 34056 ft | 484 kts | 173° |
| 2026-04-30 18:48 | 32.26276 | -83.87616 | 34502 ft | 481 kts | 173° |
| 2026-04-30 18:48 | 32.23070 | -83.86473 | 34899 ft | 479 kts | 173° |
| 2026-04-30 18:48 | 32.19842 | -83.85320 | 35233 ft | 479 kts | 173° |
| 2026-04-30 18:48 | 32.16662 | -83.84184 | 35583 ft | 478 kts | 173° |
| 2026-04-30 18:49 | 32.13488 | -83.83049 | 35898 ft | 477 kts | 173° |
| 2026-04-30 18:49 | 32.10284 | -83.81903 | 36193 ft | 477 kts | 173° |
| 2026-04-30 18:49 | 32.07097 | -83.80765 | 36533 ft | 475 kts | 173° |
| 2026-04-30 18:49 | 32.03942 | -83.79639 | 36806 ft | 475 kts | 173° |
| 2026-04-30 18:50 | 32.00782 | -83.78514 | 36881 ft | 476 kts | 173° |
| 2026-04-30 18:50 | 31.94371 | -83.76231 | 36889 ft | 477 kts | 173° |
| 2026-04-30 18:51 | 31.88048 | -83.73981 | 36891 ft | 478 kts | 173° |
| 2026-04-30 18:51 | 31.81689 | -83.71719 | 36893 ft | 477 kts | 173° |
| 2026-04-30 18:52 | 31.75277 | -83.69441 | 37031 ft | 480 kts | 173° |
| 2026-04-30 18:52 | 31.72071 | -83.68301 | 37384 ft | 477 kts | 173° |
| 2026-04-30 18:52 | 31.68929 | -83.67184 | 37671 ft | 476 kts | 173° |
| 2026-04-30 18:52 | 31.65724 | -83.65997 | 37851 ft | 479 kts | 172° |
| 2026-04-30 18:53 | 31.62581 | -83.64789 | 37981 ft | 481 kts | 171° |
| 2026-04-30 18:53 | 31.59364 | -83.63548 | 38132 ft | 483 kts | 171° |
| 2026-04-30 18:53 | 31.56149 | -83.62305 | 38242 ft | 485 kts | 171° |
| 2026-04-30 18:53 | 31.52956 | -83.61074 | 38416 ft | 485 kts | 171° |
| 2026-04-30 18:54 | 31.49738 | -83.59835 | 38608 ft | 485 kts | 171° |
| 2026-04-30 18:54 | 31.46527 | -83.58604 | 38771 ft | 486 kts | 171° |
| 2026-04-30 18:54 | 31.43316 | -83.57372 | 38916 ft | 487 kts | 171° |
| 2026-04-30 18:55 | 31.36893 | -83.54922 | 38921 ft | 489 kts | 171° |
| 2026-04-30 18:55 | 31.27190 | -83.51217 | 38913 ft | 489 kts | 171° |
| 2026-04-30 18:56 | 31.17485 | -83.47520 | 38900 ft | 487 kts | 171° |
| 2026-04-30 18:57 | 31.07778 | -83.43837 | 38906 ft | 489 kts | 170° |
| 2026-04-30 18:57 | 31.01301 | -83.41378 | 38912 ft | 489 kts | 171° |
| 2026-04-30 18:58 | 30.91581 | -83.37693 | 38914 ft | 487 kts | 170° |
| 2026-04-30 18:59 | 30.81883 | -83.34029 | 38911 ft | 487 kts | 171° |
| 2026-04-30 19:00 | 30.68959 | -83.28855 | 38911 ft | 495 kts | 164° |
| 2026-04-30 19:01 | 30.56396 | -83.22088 | 38901 ft | 495 kts | 162° |
| 2026-04-30 19:02 | 30.47010 | -83.17032 | 38889 ft | 495 kts | 162° |
| 2026-04-30 19:03 | 30.34495 | -83.10319 | 38887 ft | 494 kts | 162° |
| 2026-04-30 19:04 | 30.21962 | -83.03619 | 38887 ft | 493 kts | 162° |
| 2026-04-30 19:05 | 30.09470 | -82.96967 | 38900 ft | 493 kts | 161° |
| 2026-04-30 19:06 | 29.97013 | -82.90344 | 38903 ft | 492 kts | 161° |
| 2026-04-30 19:06 | 29.87681 | -82.85392 | 38903 ft | 491 kts | 161° |
| 2026-04-30 19:07 | 29.78368 | -82.80465 | 38908 ft | 490 kts | 161° |
| 2026-04-30 19:08 | 29.65894 | -82.73879 | 38914 ft | 491 kts | 161° |
| 2026-04-30 19:09 | 29.56574 | -82.68969 | 38910 ft | 489 kts | 160° |
| 2026-04-30 19:09 | 29.50380 | -82.65712 | 38908 ft | 489 kts | 160° |
| 2026-04-30 19:10 | 29.37918 | -82.59168 | 38913 ft | 490 kts | 160° |
| 2026-04-30 19:11 | 29.28487 | -82.54689 | 38918 ft | 483 kts | 169° |
| 2026-04-30 19:12 | 29.22080 | -82.53076 | 38916 ft | 474 kts | 179° |
| 2026-04-30 19:12 | 29.15553 | -82.52642 | 38920 ft | 466 kts | 188° |
| 2026-04-30 19:13 | 29.02519 | -82.52715 | 38925 ft | 468 kts | 187° |
| 2026-04-30 19:14 | 28.96000 | -82.52711 | 38935 ft | 466 kts | 187° |
| 2026-04-30 19:14 | 28.89466 | -82.52712 | 38937 ft | 467 kts | 187° |
| 2026-04-30 19:15 | 28.82845 | -82.52711 | 38937 ft | 467 kts | 187° |
| 2026-04-30 19:15 | 28.73055 | -82.52708 | 38941 ft | 467 kts | 187° |
| 2026-04-30 19:16 | 28.66522 | -82.52705 | 38941 ft | 467 kts | 187° |
| 2026-04-30 19:17 | 28.56746 | -82.52702 | 38937 ft | 468 kts | 187° |
| 2026-04-30 19:17 | 28.46914 | -82.52698 | 38943 ft | 469 kts | 186° |
| 2026-04-30 19:18 | 28.37096 | -82.52690 | 38945 ft | 467 kts | 186° |
| 2026-04-30 19:19 | 28.30561 | -82.52686 | 38948 ft | 468 kts | 186° |
| 2026-04-30 19:19 | 28.20705 | -82.52683 | 38955 ft | 468 kts | 186° |
| 2026-04-30 19:20 | 28.14168 | -82.52676 | 38955 ft | 468 kts | 186° |
| 2026-04-30 19:21 | 28.04338 | -82.52549 | 38958 ft | 470 kts | 182° |
| 2026-04-30 19:22 | 27.91245 | -82.49673 | 38957 ft | 480 kts | 166° |
| 2026-04-30 19:23 | 27.72102 | -82.42809 | 38234 ft | 474 kts | 166° |
| 2026-04-30 19:24 | 27.65826 | -82.40586 | 37601 ft | 467 kts | 166° |
| 2026-04-30 19:24 | 27.62723 | -82.39490 | 37301 ft | 465 kts | 166° |
| 2026-04-30 19:24 | 27.56525 | -82.37302 | 36702 ft | 465 kts | 166° |
| 2026-04-30 19:25 | 27.47393 | -82.34078 | 35818 ft | 463 kts | 166° |
| 2026-04-30 19:26 | 27.41168 | -82.31858 | 35218 ft | 464 kts | 164° |
| 2026-04-30 19:26 | 27.37460 | -82.30238 | 34858 ft | 466 kts | 159° |